Time;durP1;ratioP1;P1;durP2;ratioP2;P2;SDS_P1;SDS_P2;PMS_P1;PMS_P2;Temp;Humidity;BMP_temperature;BMP_pressure;BME280_temperature;BME280_humidity;BME280_pressure;Samples;Min_cycle;Max_cycle;Signal;HPM_P1;HPM_P2
2024/01/03 06:00:39;;;;;;;;;;;;;;;;;;5924652;23;19927;-39
2024/01/03 06:03:05;;;;;;;;;;;;;;;;;;4973363;28;19994;-39
2024/01/03 06:05:31;;;;;;;;;;;;;;;;;;4974149;28;19918;-39
2024/01/03 06:07:56;;;;;;;;;;;;;;;;;;4973419;28;20383;-40
2024/01/03 06:10:22;;;;;;;;;;;;;;;;;;4973566;28;19964;-39
2024/01/03 06:12:48;;;;;;;;;;;;;;;;;;4973396;28;20392;-39
2024/01/03 06:15:14;;;;;;;;;;;;;;;;;;4973550;28;19921;-40
2024/01/03 06:17:40;;;;;;;;;;;;;;;;;;4973509;28;19974;-40
2024/01/03 06:20:06;;;;;;;;;;;;;;;;;;4973480;28;19910;-40
2024/01/03 06:22:32;;;;;;;;;;;;;;;;;;4973488;28;19992;-40
2024/01/03 06:24:58;;;;;;;;;;;;;;;;;;4973044;28;20021;-40
2024/01/03 06:27:24;;;;;;;;;;;;;;;;;;4971749;28;20073;-40
2024/01/03 06:29:49;;;;;;;;;;;;;;;;;;4973182;28;19965;-39
2024/01/03 06:32:15;;;;;;;;;;;;;;;;;;4973481;28;20005;-39
2024/01/03 06:34:41;;;;;;;;;;;;;;;;;;4973643;28;19918;-39
2024/01/03 06:37:07;;;;;;;;;;;;;;;;;;4972704;28;19914;-40
2024/01/03 06:39:33;;;;;;;;;;;;;;;;;;4973004;28;19910;-40
2024/01/03 06:41:59;;;;;;;;;;;;;;;;;;4973214;28;19913;-40
2024/01/03 06:44:25;;;;;;;;;;;;;;;;;;4972821;28;20381;-39
2024/01/03 06:46:51;;;;;;;;;;;;;;;;;;4972989;28;19910;-40
2024/01/03 06:49:17;;;;;;;;;;;;;;;;;;4972415;28;19952;-40
2024/01/03 06:51:44;;;;;;;;;;;;;;;;;;4973357;28;19910;-40
2024/01/03 06:54:10;;;;;;;;;;;;;;;;;;4971633;28;19958;-41
2024/01/03 06:56:35;;;;;;;;;;;;;;;;;;4971069;28;19918;-40
2024/01/03 06:59:01;;;;;;;;;;;;;;;;;;4992657;28;20284;-40
2024/01/03 07:01:27;;;;;;;;;;;;;;;;;;4978535;28;20013;-42
2024/01/03 07:03:54;;;;;;;;;;;;;;;;;;4973548;28;19952;-40
2024/01/03 07:06:20;;;;;;;;;;;;;;;;;;4973722;28;19910;-40
2024/01/03 07:08:47;;;;;;;;;;;;;;;;;;4969710;28;20380;-40
2024/01/03 07:11:12;;;;;;;;;;;;;;;;;;4973100;28;19953;-40
2024/01/03 07:13:38;;;;;;;;;;;;;;;;;;4973497;28;19952;-40
2024/01/03 07:16:04;;;;;;;;;;;;;;;;;;4973702;28;20392;-41
2024/01/03 07:18:30;;;;;;;;;;;;;;;;;;4972725;28;20058;-40
2024/01/03 07:20:56;;;;;;;;;;;;;;;;;;4973516;28;19917;-41
2024/01/03 07:23:22;;;;;;;;;;;;;;;;;;4963526;28;20298;-40
2024/01/03 07:25:48;;;;;;;;;;;;;;;;;;4954250;28;20278;-40
2024/01/03 07:28:14;;;;;;;;;;;;;;;;;;4961508;28;19918;-40
2024/01/03 07:30:40;;;;;;;;;;;;;;;;;;4972807;28;19910;-41
2024/01/03 07:33:06;;;;;;;;;;;;;;;;;;4971105;28;20021;-41
2024/01/03 07:35:32;;;;;;;;;;;;;;;;;;4971063;28;19982;-40
2024/01/03 07:37:57;;;;;;;;;;;;;;;;;;4967451;28;19994;-40
2024/01/03 07:40:23;;;;;;;;;;;;;;;;;;4962960;28;20447;-40
2024/01/03 07:42:49;;;;;;;;;;;;;;;;;;4974009;28;19953;-40
2024/01/03 07:45:16;;;;;;;;;;;;;;;;;;4972976;28;20292;-41
2024/01/03 07:47:42;;;;;;;;;;;;;;;;;;4969122;28;20421;-40
2024/01/03 07:50:08;;;;;;;;;;;;;;;;;;4972818;28;19917;-41
2024/01/03 07:52:34;;;;;;;;;;;;;;;;;;4973032;28;19968;-40
2024/01/03 07:54:59;;;;;;;;;;;;;;;;;;4973347;28;19914;-40
2024/01/03 07:57:25;;;;;;;;;;;;;;;;;;4972933;28;19960;-40
2024/01/03 07:59:51;;;;;;;;;;;;;;;;;;4968902;28;20443;-40
2024/01/03 08:02:17;;;;;;;;;;;;;;;;;;4971171;28;19918;-40
2024/01/03 08:04:43;;;;;;;;;;;;;;;;;;4972745;28;20298;-41
2024/01/03 08:07:09;;;;;;;;;;;;;;;;;;4972391;28;20001;-41
2024/01/03 08:09:37;;;;;;;;;;;;;;;;;;4972797;28;19985;-40
2024/01/03 08:12:03;;;;;;;;;;;;;;;;;;4966606;28;19915;-40
2024/01/03 08:14:29;;;;;;;;;;;;;;;;;;4953285;29;20383;-41
2024/01/03 08:16:55;;;;;;;;;;;;;;;;;;4953406;29;19919;-40
2024/01/03 08:19:22;;;;;;;;;;;;;;;;;;4953104;28;20406;-41
2024/01/03 08:21:48;;;;;;;;;;;;;;;;;;4952508;28;19930;-41
2024/01/03 08:24:14;;;;;;;;;;;;;;;;;;4972330;28;19910;-41
2024/01/03 08:26:39;;;;;;;;;;;;;;;;;;4971017;28;19914;-40
2024/01/03 08:29:05;;;;;;;;;;;;;;;;;;4965734;28;20563;-41
2024/01/03 08:31:32;;;;;;;;;;;;;;;;;;4972431;28;19914;-41
2024/01/03 08:33:58;;;;;;;;;;;;;;;;;;4969344;28;19969;-41
2024/01/03 08:36:24;;;;;;;;;;;;;;;;;;4956093;28;20399;-41
2024/01/03 08:38:50;;;;;;;;;;;;;;;;;;4968165;28;19918;-40
2024/01/03 08:41:16;;;;;;;;;;;;;;;;;;4973276;28;19910;-40
2024/01/03 08:43:42;;;;;;;;;;;;;;;;;;4969008;28;19914;-41
2024/01/03 08:46:08;;;;;;;;;;;;;;;;;;4959703;28;19914;-41
2024/01/03 08:48:34;;;;;;;;;;;;;;;;;;4970797;28;20004;-43
2024/01/03 08:51:00;;;;;;;;;;;;;;;;;;4968413;28;20013;-43
2024/01/03 08:53:26;;;;;;;;;;;;;;;;;;4977142;28;20451;-41
2024/01/03 08:55:51;;;;;;;;;;;;;;;;;;4969328;28;20001;-40
2024/01/03 08:58:17;;;;;;;;;;;;;;;;;;4969388;28;19918;-41
2024/01/03 09:00:44;;;;;;;;;;;;;;;;;;4960369;28;20032;-40
2024/01/03 09:03:10;;;;;;;;;;;;;;;;;;4966575;28;20019;-41
2024/01/03 09:05:35;;;;;;;;;;;;;;;;;;4967249;28;20361;-41
2024/01/03 09:08:01;;;;;;;;;;;;;;;;;;4968510;28;19914;-41
2024/01/03 09:10:27;;;;;;;;;;;;;;;;;;4971693;28;20472;-40
2024/01/03 09:12:53;;;;;;;;;;;;;;;;;;4971847;28;19910;-41
2024/01/03 09:15:19;;;;;;;;;;;;;;;;;;4970772;28;19941;-41
2024/01/03 09:17:45;;;;;;;;;;;;;;;;;;4969978;28;19941;-41
2024/01/03 09:20:11;;;;;;;;;;;;;;;;;;4972096;28;19921;-41
2024/01/03 09:22:37;;;;;;;;;;;;;;;;;;4970916;28;20645;-41
2024/01/03 09:25:03;;;;;;;;;;;;;;;;;;4959113;28;20433;-41
2024/01/03 09:27:29;;;;;;;;;;;;;;;;;;4969463;28;19921;-41
2024/01/03 09:29:55;;;;;;;;;;;;;;;;;;4972212;28;19917;-40
2024/01/03 09:32:21;;;;;;;;;;;;;;;;;;4971471;28;20471;-41
2024/01/03 09:34:47;;;;;;;;;;;;;;;;;;4973226;28;19949;-41
2024/01/03 09:37:12;;;;;;;;;;;;;;;;;;4973648;28;19914;-41
2024/01/03 09:39:38;;;;;;;;;;;;;;;;;;4974901;28;19910;-41
2024/01/03 09:42:04;;;;;;;;;;;;;;;;;;4972654;28;20420;-40
2024/01/03 09:44:30;;;;;;;;;;;;;;;;;;4976295;28;20572;-41
2024/01/03 09:46:56;;;;;;;;;;;;;;;;;;4973855;28;20383;-41
2024/01/03 09:49:22;;;;;;;;;;;;;;;;;;4974987;28;19925;-41
2024/01/03 09:51:48;;;;;;;;;;;;;;;;;;4973651;28;20348;-41
2024/01/03 09:54:14;;;;;;;;;;;;;;;;;;4974415;28;20032;-41
2024/01/03 09:56:40;;;;;;;;;;;;;;;;;;4971086;28;20291;-41
2024/01/03 09:59:06;;;;;;;;;;;;;;;;;;4978982;28;19914;-42
2024/01/03 10:01:32;;;;;;;;;;;;;;;;;;4972000;28;19925;-41
2024/01/03 10:03:58;;;;;;;;;;;;;;;;;;4975937;28;19965;-41
2024/01/03 10:06:24;;;;;;;;;;;;;;;;;;4975543;28;19918;-41
2024/01/03 10:08:50;;;;;;;;;;;;;;;;;;4980066;28;19941;-42
2024/01/03 10:11:16;;;;;;;;;;;;;;;;;;4995081;28;20285;-42
2024/01/03 10:13:42;;;;;;;;;;;;;;;;;;4987893;28;19910;-41
2024/01/03 10:16:08;;;;;;;;;;;;;;;;;;4974803;28;19911;-41
2024/01/03 10:18:34;;;;;;;;;;;;;;;;;;4973116;28;19917;-41
2024/01/03 10:20:59;;;;;;;;;;;;;;;;;;4974565;28;19917;-42
2024/01/03 10:23:25;;;;;;;;;;;;;;;;;;4974363;28;20557;-41
2024/01/03 10:25:51;;;;;;;;;;;;;;;;;;4974780;28;19965;-41
2024/01/03 10:28:17;;;;;;;;;;;;;;;;;;4974126;28;19917;-42
2024/01/03 10:30:43;;;;;;;;;;;;;;;;;;4972283;28;19964;-41
2024/01/03 10:33:09;;;;;;;;;;;;;;;;;;4958857;28;19934;-41
2024/01/03 10:35:35;;;;;;;;;;;;;;;;;;4954213;29;19981;-41
2024/01/03 10:38:01;;;;;;;;;;;;;;;;;;4969154;28;20290;-41
2024/01/03 10:40:27;;;;;;;;;;;;;;;;;;4954768;29;20317;-41
2024/01/03 10:42:53;;;;;;;;;;;;;;;;;;4954401;28;19910;-41
2024/01/03 10:45:19;;;;;;;;;;;;;;;;;;4953244;29;19938;-41
2024/01/03 10:47:44;;;;;;;;;;;;;;;;;;4953202;29;20014;-41
2024/01/03 10:50:10;;;;;;;;;;;;;;;;;;4953856;29;19910;-41
2024/01/03 10:52:39;;;;;;;;;;;;;;;;;;4953460;29;19949;-41
2024/01/03 10:55:05;;;;;;;;;;;;;;;;;;4953524;29;19950;-42
2024/01/03 10:57:32;;;;;;;;;;;;;;;;;;4953160;29;19922;-42
2024/01/03 10:59:57;;;;;;;;;;;;;;;;;;4953290;29;19983;-41
2024/01/03 11:02:24;;;;;;;;;;;;;;;;;;4953426;29;19922;-42
2024/01/03 11:04:49;;;;;;;;;;;;;;;;;;4953483;29;19910;-42
2024/01/03 11:07:15;;;;;;;;;;;;;;;;;;4953196;29;19911;-42
2024/01/03 11:09:41;;;;;;;;;;;;;;;;;;4953682;29;19911;-42
2024/01/03 11:12:07;;;;;;;;;;;;;;;;;;4953055;29;20290;-42
2024/01/03 11:14:33;;;;;;;;;;;;;;;;;;4953158;29;19937;-43
2024/01/03 11:17:00;;;;;;;;;;;;;;;;;;4953219;29;20411;-43
2024/01/03 11:19:26;;;;;;;;;;;;;;;;;;4953235;29;19981;-42
2024/01/03 11:21:52;;;;;;;;;;;;;;;;;;4952831;29;20389;-42
2024/01/03 11:24:18;;;;;;;;;;;;;;;;;;4953068;29;19910;-43
2024/01/03 11:26:44;;;;;;;;;;;;;;;;;;4952838;29;19945;-43
2024/01/03 11:29:09;;;;;;;;;;;;;;;;;;4952791;29;19911;-42
2024/01/03 11:31:35;;;;;;;;;;;;;;;;;;4952914;29;19910;-42
2024/01/03 11:34:01;;;;;;;;;;;;;;;;;;4952812;29;20278;-42
2024/01/03 11:36:27;;;;;;;;;;;;;;;;;;4953054;29;19915;-42
2024/01/03 11:38:53;;;;;;;;;;;;;;;;;;4952923;29;19911;-43
2024/01/03 11:41:22;;;;;;;;;;;;;;;;;;4952892;29;20445;-42
2024/01/03 11:43:48;;;;;;;;;;;;;;;;;;4952631;29;19918;-43
2024/01/03 11:46:15;;;;;;;;;;;;;;;;;;4952678;29;19911;-42
2024/01/03 11:48:45;;;;;;;;;;;;;;;;;;4952092;29;19911;-43
2024/01/03 11:51:11;;;;;;;;;;;;;;;;;;4952574;29;20294;-42
2024/01/03 11:53:37;;;;;;;;;;;;;;;;;;4952442;29;19977;-44
2024/01/03 11:56:03;;;;;;;;;;;;;;;;;;4951587;28;19958;-43
2024/01/03 11:58:29;;;;;;;;;;;;;;;;;;4952412;29;19923;-42
2024/01/03 12:00:55;;;;;;;;;;;;;;;;;;4952262;29;20009;-44
2024/01/03 12:03:26;;;;;;;;;;;;;;;;;;4952104;29;20341;-42
2024/01/03 12:05:52;;;;;;;;;;;;;;;;;;4952673;29;20283;-43
2024/01/03 12:08:18;;;;;;;;;;;;;;;;;;4952171;29;19921;-43
2024/01/03 12:10:44;;;;;;;;;;;;;;;;;;4952225;29;19976;-44
2024/01/03 12:13:10;;;;;;;;;;;;;;;;;;4952042;29;20174;-43
2024/01/03 12:15:37;;;;;;;;;;;;;;;;;;4952104;29;19922;-42
2024/01/03 12:18:03;;;;;;;;;;;;;;;;;;4951625;29;19914;-43
2024/01/03 12:20:29;;;;;;;;;;;;;;;;;;4952454;29;19917;-43
2024/01/03 12:22:55;;;;;;;;;;;;;;;;;;4951646;29;20374;-42
2024/01/03 12:25:21;;;;;;;;;;;;;;;;;;4951900;29;19914;-43
2024/01/03 12:27:47;;;;;;;;;;;;;;;;;;4951612;29;19915;-44
2024/01/03 12:30:13;;;;;;;;;;;;;;;;;;4951886;29;19910;-43
2024/01/03 12:32:39;;;;;;;;;;;;;;;;;;4951676;29;19914;-44
2024/01/03 12:35:05;;;;;;;;;;;;;;;;;;4952011;29;19918;-43
2024/01/03 12:37:31;;;;;;;;;;;;;;;;;;4951636;29;20016;-42
2024/01/03 12:39:57;;;;;;;;;;;;;;;;;;4951752;29;19993;-43
2024/01/03 12:42:23;;;;;;;;;;;;;;;;;;4951589;29;20408;-43
2024/01/03 12:44:50;;;;;;;;;;;;;;;;;;4951512;29;19981;-44
2024/01/03 12:47:16;;;;;;;;;;;;;;;;;;4951490;29;19910;-42
2024/01/03 12:49:41;;;;;;;;;;;;;;;;;;4951569;29;19910;-44
2024/01/03 12:52:07;;;;;;;;;;;;;;;;;;4951414;29;19938;-44
2024/01/03 12:54:33;;;;;;;;;;;;;;;;;;4951194;29;20350;-43
2024/01/03 12:56:59;;;;;;;;;;;;;;;;;;4950245;29;19927;-43
2024/01/03 12:59:25;;;;;;;;;;;;;;;;;;4951227;29;19910;-44
2024/01/03 13:01:51;;;;;;;;;;;;;;;;;;4951340;29;19918;-43
2024/01/03 13:04:17;;;;;;;;;;;;;;;;;;4951297;29;19910;-43
2024/01/03 13:06:44;;;;;;;;;;;;;;;;;;4951217;28;19918;-43
2024/01/03 13:09:10;;;;;;;;;;;;;;;;;;4951176;29;19917;-43
2024/01/03 13:11:36;;;;;;;;;;;;;;;;;;4951502;29;19910;-43
2024/01/03 13:14:02;;;;;;;;;;;;;;;;;;4950760;29;20313;-43
2024/01/03 13:16:28;;;;;;;;;;;;;;;;;;4965332;28;20404;-43
2024/01/03 13:18:54;;;;;;;;;;;;;;;;;;4968773;28;20012;-44
2024/01/03 13:21:20;;;;;;;;;;;;;;;;;;4948955;29;19911;-44
2024/01/03 13:23:46;;;;;;;;;;;;;;;;;;4948593;29;19910;-43
2024/01/03 13:26:12;;;;;;;;;;;;;;;;;;4948921;28;20288;-44
2024/01/03 13:28:40;;;;;;;;;;;;;;;;;;4948582;29;19911;-44
2024/01/03 13:31:06;;;;;;;;;;;;;;;;;;4949042;28;20266;-44
2024/01/03 13:33:32;;;;;;;;;;;;;;;;;;4948959;29;19917;-44
2024/01/03 13:35:58;;;;;;;;;;;;;;;;;;4949563;29;20172;-44
2024/01/03 13:38:24;;;;;;;;;;;;;;;;;;4948253;29;19915;-44
2024/01/03 13:40:50;;;;;;;;;;;;;;;;;;4948090;29;19918;-45
2024/01/03 13:43:15;;;;;;;;;;;;;;;;;;4948637;29;19910;-43
2024/01/03 13:45:41;;;;;;;;;;;;;;;;;;4948321;29;19973;-43
2024/01/03 13:48:08;;;;;;;;;;;;;;;;;;4948504;29;19911;-42
2024/01/03 13:50:34;;;;;;;;;;;;;;;;;;4947960;28;19920;-43
2024/01/03 13:53:00;;;;;;;;;;;;;;;;;;4948378;29;20009;-42
2024/01/03 13:55:26;;;;;;;;;;;;;;;;;;4948857;29;19911;-44
2024/01/03 13:57:52;;;;;;;;;;;;;;;;;;4948087;29;20464;-42
2024/01/03 14:00:19;;;;;;;;;;;;;;;;;;4948013;29;19957;-43
2024/01/03 14:02:46;;;;;;;;;;;;;;;;;;4948387;28;19925;-43
2024/01/03 14:05:15;;;;;;;;;;;;;;;;;;4948182;28;19914;-43
2024/01/03 14:07:40;;;;;;;;;;;;;;;;;;4948230;28;20301;-42
2024/01/03 14:10:07;;;;;;;;;;;;;;;;;;4948449;29;19910;-43
2024/01/03 14:12:33;;;;;;;;;;;;;;;;;;4948494;28;19911;-43
2024/01/03 14:14:59;;;;;;;;;;;;;;;;;;4948809;29;19911;-45
2024/01/03 14:17:24;;;;;;;;;;;;;;;;;;4948259;29;19965;-44
2024/01/03 14:19:50;;;;;;;;;;;;;;;;;;4950567;28;19918;-43
2024/01/03 14:22:16;;;;;;;;;;;;;;;;;;4962357;28;19918;-42
2024/01/03 14:24:42;;;;;;;;;;;;;;;;;;4970125;28;19914;-43
2024/01/03 14:27:08;;;;;;;;;;;;;;;;;;4971086;28;20381;-44
2024/01/03 14:29:34;;;;;;;;;;;;;;;;;;4972150;28;19914;-44
2024/01/03 14:32:00;;;;;;;;;;;;;;;;;;4968559;28;19914;-45
2024/01/03 14:34:26;;;;;;;;;;;;;;;;;;4966122;28;20015;-44
2024/01/03 14:36:51;;;;;;;;;;;;;;;;;;4957546;28;20148;-44
2024/01/03 14:39:17;;;;;;;;;;;;;;;;;;4965954;28;19914;-44
2024/01/03 14:41:43;;;;;;;;;;;;;;;;;;4971717;28;20029;-44
2024/01/03 14:44:13;;;;;;;;;;;;;;;;;;4970655;28;19922;-46
2024/01/03 14:46:39;;;;;;;;;;;;;;;;;;4966644;28;19918;-43
2024/01/03 14:49:05;;;;;;;;;;;;;;;;;;4970958;28;20489;-50
2024/01/03 14:51:31;;;;;;;;;;;;;;;;;;4971821;28;19915;-44
2024/01/03 14:53:58;;;;;;;;;;;;;;;;;;4971091;28;19960;-45
2024/01/03 14:56:27;;;;;;;;;;;;;;;;;;4979516;28;19980;-47
2024/01/03 14:58:53;;;;;;;;;;;;;;;;;;4954695;28;19914;-50
2024/01/03 15:01:19;;;;;;;;;;;;;;;;;;4971712;28;19968;-48
2024/01/03 15:03:44;;;;;;;;;;;;;;;;;;4972274;28;19921;-44
2024/01/03 15:06:10;;;;;;;;;;;;;;;;;;4968940;28;19922;-47
2024/01/03 15:08:37;;;;;;;;;;;;;;;;;;4954717;28;19914;-46
2024/01/03 15:11:04;;;;;;;;;;;;;;;;;;4950730;28;19966;-48
2024/01/03 15:13:30;;;;;;;;;;;;;;;;;;4956445;28;20385;-47
2024/01/03 15:15:57;;;;;;;;;;;;;;;;;;4952529;28;19966;-49
2024/01/03 15:18:23;;;;;;;;;;;;;;;;;;4965115;28;20377;-45
2024/01/03 15:20:49;;;;;;;;;;;;;;;;;;4971149;28;19978;-44
2024/01/03 15:23:16;;;;;;;;;;;;;;;;;;4971182;28;19933;-46
2024/01/03 15:25:42;;;;;;;;;;;;;;;;;;4970083;28;19914;-44
2024/01/03 15:28:08;;;;;;;;;;;;;;;;;;4970189;28;19922;-45
2024/01/03 15:30:34;;;;;;;;;;;;;;;;;;4970531;28;19918;-44
2024/01/03 15:33:00;;;;;;;;;;;;;;;;;;4966197;28;19914;-47
2024/01/03 15:35:26;;;;;;;;;;;;;;;;;;4969605;28;19938;-47
2024/01/03 15:37:52;;;;;;;;;;;;;;;;;;4970125;28;19921;-47
2024/01/03 15:40:19;;;;;;;;;;;;;;;;;;4968855;28;19941;-49
2024/01/03 15:42:45;;;;;;;;;;;;;;;;;;4963190;28;20539;-51
2024/01/03 15:45:12;;;;;;;;;;;;;;;;;;4958615;28;19914;-49
2024/01/03 15:47:38;;;;;;;;;;;;;;;;;;4970581;28;20427;-48
2024/01/03 15:50:04;;;;;;;;;;;;;;;;;;4969413;28;19918;-48
2024/01/03 15:52:29;;;;;;;;;;;;;;;;;;4950003;29;19917;-47
2024/01/03 15:54:55;;;;;;;;;;;;;;;;;;4953233;28;19968;-50
2024/01/03 15:57:22;;;;;;;;;;;;;;;;;;4968481;28;20016;-46
2024/01/03 15:59:48;;;;;;;;;;;;;;;;;;4969603;28;19910;-46
2024/01/03 16:02:13;;;;;;;;;;;;;;;;;;4969729;28;19924;-44
2024/01/03 16:04:40;;;;;;;;;;;;;;;;;;4968888;28;19914;-44
2024/01/03 16:07:06;;;;;;;;;;;;;;;;;;4966739;28;19914;-45
2024/01/03 16:09:34;;;;;;;;;;;;;;;;;;4961817;28;19920;-44
2024/01/03 16:12:01;;;;;;;;;;;;;;;;;;4968807;28;19910;-45
2024/01/03 16:14:27;;;;;;;;;;;;;;;;;;4968056;28;19988;-45
2024/01/03 16:16:53;;;;;;;;;;;;;;;;;;4967975;28;19918;-44
2024/01/03 16:19:19;;;;;;;;;;;;;;;;;;4961035;28;19914;-45
2024/01/03 16:21:45;;;;;;;;;;;;;;;;;;4950685;28;20009;-44
2024/01/03 16:24:11;;;;;;;;;;;;;;;;;;4949830;28;19915;-46
2024/01/03 16:26:37;;;;;;;;;;;;;;;;;;4950878;28;20023;-45
2024/01/03 16:29:04;;;;;;;;;;;;;;;;;;4975629;28;20265;-47
2024/01/03 16:31:31;;;;;;;;;;;;;;;;;;4966394;28;20426;-44
2024/01/03 16:33:57;;;;;;;;;;;;;;;;;;4968200;28;19922;-46
2024/01/03 16:36:22;;;;;;;;;;;;;;;;;;4968727;28;20340;-49
2024/01/03 16:38:49;;;;;;;;;;;;;;;;;;4968415;28;19918;-48
2024/01/03 16:41:15;;;;;;;;;;;;;;;;;;4967368;28;20286;-50
2024/01/03 16:43:41;;;;;;;;;;;;;;;;;;4966970;28;19914;-47
2024/01/03 16:46:07;;;;;;;;;;;;;;;;;;4962706;28;19922;-43
2024/01/03 16:48:33;;;;;;;;;;;;;;;;;;4965375;28;19937;-44
2024/01/03 16:50:59;;;;;;;;;;;;;;;;;;4966245;28;20120;-44
2024/01/03 16:53:25;;;;;;;;;;;;;;;;;;4969570;28;19922;-44
2024/01/03 16:55:51;;;;;;;;;;;;;;;;;;4968391;28;20008;-45
2024/01/03 16:58:18;;;;;;;;;;;;;;;;;;4967426;28;19924;-44
2024/01/03 17:00:46;;;;;;;;;;;;;;;;;;4965978;28;19914;-44
2024/01/03 17:03:12;;;;;;;;;;;;;;;;;;4968080;28;19914;-44
2024/01/03 17:05:38;;;;;;;;;;;;;;;;;;4968300;28;19917;-43
2024/01/03 17:08:04;;;;;;;;;;;;;;;;;;4966290;28;19914;-44
2024/01/03 17:10:30;;;;;;;;;;;;;;;;;;4965205;28;19914;-44
2024/01/03 17:12:56;;;;;;;;;;;;;;;;;;4965796;28;19914;-44
2024/01/03 17:15:22;;;;;;;;;;;;;;;;;;4971582;28;20373;-43
2024/01/03 17:17:48;;;;;;;;;;;;;;;;;;4965991;28;19973;-44
2024/01/03 17:20:14;;;;;;;;;;;;;;;;;;4966372;28;19961;-44
2024/01/03 17:22:40;;;;;;;;;;;;;;;;;;4967157;28;20312;-43
2024/01/03 17:25:07;;;;;;;;;;;;;;;;;;4966869;28;19910;-45
2024/01/03 17:27:33;;;;;;;;;;;;;;;;;;4966469;28;19914;-44
2024/01/03 17:29:59;;;;;;;;;;;;;;;;;;4965249;28;20296;-44
2024/01/03 17:32:26;;;;;;;;;;;;;;;;;;4966714;28;19922;-46
2024/01/03 17:34:52;;;;;;;;;;;;;;;;;;4966106;28;20349;-44
2024/01/03 17:37:19;;;;;;;;;;;;;;;;;;4971120;28;20288;-45
2024/01/03 17:39:46;;;;;;;;;;;;;;;;;;4988364;28;19910;-45
2024/01/03 17:42:11;;;;;;;;;;;;;;;;;;4968128;28;19945;-44
2024/01/03 17:44:39;;;;;;;;;;;;;;;;;;4973549;28;19914;-45
2024/01/03 17:47:04;;;;;;;;;;;;;;;;;;4975535;28;19918;-45
2024/01/03 17:49:30;;;;;;;;;;;;;;;;;;4964422;28;20324;-45
2024/01/03 17:51:56;;;;;;;;;;;;;;;;;;4966508;28;19960;-46
2024/01/03 17:54:22;;;;;;;;;;;;;;;;;;4972788;28;19910;-46
2024/01/03 17:56:49;;;;;;;;;;;;;;;;;;4972671;28;19961;-45
2024/01/03 17:59:15;;;;;;;;;;;;;;;;;;4967349;28;19919;-44
2024/01/03 18:01:41;;;;;;;;;;;;;;;;;;4976068;28;19918;-45
2024/01/03 18:04:09;;;;;;;;;;;;;;;;;;4970852;28;19925;-45
2024/01/03 18:06:34;;;;;;;;;;;;;;;;;;4972489;28;19921;-44
2024/01/03 18:09:02;;;;;;;;;;;;;;;;;;4969240;28;19915;-44
2024/01/03 18:11:28;;;;;;;;;;;;;;;;;;4965643;28;19918;-44
2024/01/03 18:13:55;;;;;;;;;;;;;;;;;;4963694;28;19928;-43
2024/01/03 18:16:22;;;;;;;;;;;;;;;;;;4961528;28;19997;-49
2024/01/03 18:18:49;;;;;;;;;;;;;;;;;;4971447;28;19917;-47
2024/01/03 18:21:15;;;;;;;;;;;;;;;;;;4971094;28;19914;-48
2024/01/03 18:23:42;;;;;;;;;;;;;;;;;;4959998;28;19953;-49
2024/01/03 18:26:08;;;;;;;;;;;;;;;;;;4990378;28;19914;-50
2024/01/03 18:28:36;;;;;;;;;;;;;;;;;;4978529;28;20082;-51
2024/01/03 18:31:03;;;;;;;;;;;;;;;;;;4957701;28;19921;-51
2024/01/03 18:33:29;;;;;;;;;;;;;;;;;;4968697;28;20585;-49
2024/01/03 18:35:55;;;;;;;;;;;;;;;;;;4963870;28;20017;-49
2024/01/03 18:38:21;;;;;;;;;;;;;;;;;;4962080;28;19926;-50
2024/01/03 18:40:48;;;;;;;;;;;;;;;;;;4970410;28;19957;-50
2024/01/03 18:43:14;;;;;;;;;;;;;;;;;;4963929;28;20467;-48
2024/01/03 18:45:40;;;;;;;;;;;;;;;;;;4976001;28;19914;-48
2024/01/03 18:48:06;;;;;;;;;;;;;;;;;;4964598;28;19953;-50
2024/01/03 18:50:32;;;;;;;;;;;;;;;;;;4964732;28;19918;-49
2024/01/03 18:52:58;;;;;;;;;;;;;;;;;;4958077;28;19914;-49
2024/01/03 18:55:25;;;;;;;;;;;;;;;;;;4972662;28;19968;-45
2024/01/03 18:57:51;;;;;;;;;;;;;;;;;;4981600;28;19925;-45
2024/01/03 19:00:16;;;;;;;;;;;;;;;;;;4959163;28;20513;-44
2024/01/03 19:02:42;;;;;;;;;;;;;;;;;;4961007;28;19918;-44
2024/01/03 19:05:11;;;;;;;;;;;;;;;;;;4956181;28;20144;-43
2024/01/03 19:07:37;;;;;;;;;;;;;;;;;;4960938;28;20005;-45
2024/01/03 19:10:03;;;;;;;;;;;;;;;;;;4959120;28;20371;-43
2024/01/03 19:12:30;;;;;;;;;;;;;;;;;;4967448;28;19922;-44
2024/01/03 19:14:55;;;;;;;;;;;;;;;;;;4968520;28;19968;-46
2024/01/03 19:17:21;;;;;;;;;;;;;;;;;;4960122;28;19972;-44
2024/01/03 19:19:47;;;;;;;;;;;;;;;;;;4958099;28;19933;-46
2024/01/03 19:22:14;;;;;;;;;;;;;;;;;;4959591;28;19914;-45
2024/01/03 19:24:40;;;;;;;;;;;;;;;;;;4956283;28;19922;-45
2024/01/03 19:27:06;;;;;;;;;;;;;;;;;;4957284;28;19915;-45
2024/01/03 19:29:32;;;;;;;;;;;;;;;;;;4957213;28;19922;-44
2024/01/03 19:31:58;;;;;;;;;;;;;;;;;;4965297;28;20279;-44
2024/01/03 19:34:24;;;;;;;;;;;;;;;;;;4961313;28;19914;-44
2024/01/03 19:36:50;;;;;;;;;;;;;;;;;;4960637;28;19925;-45
2024/01/03 19:39:16;;;;;;;;;;;;;;;;;;4958979;28;20332;-44
2024/01/03 19:41:42;;;;;;;;;;;;;;;;;;4962164;28;19914;-43
2024/01/03 19:44:09;;;;;;;;;;;;;;;;;;4961276;28;20024;-45
2024/01/03 19:46:36;;;;;;;;;;;;;;;;;;4979596;28;20340;-44
2024/01/03 19:49:02;;;;;;;;;;;;;;;;;;4988303;28;20466;-44
2024/01/03 19:51:28;;;;;;;;;;;;;;;;;;4962019;28;19918;-44
2024/01/03 19:53:54;;;;;;;;;;;;;;;;;;4959108;28;19914;-46
2024/01/03 19:56:19;;;;;;;;;;;;;;;;;;4966330;28;19945;-45
2024/01/03 19:58:46;;;;;;;;;;;;;;;;;;4957813;28;20433;-45
2024/01/03 20:01:12;;;;;;;;;;;;;;;;;;4967554;28;20013;-44
2024/01/03 20:03:38;;;;;;;;;;;;;;;;;;4970080;28;20009;-44
2024/01/03 20:06:04;;;;;;;;;;;;;;;;;;4959927;28;20407;-44
2024/01/03 20:08:31;;;;;;;;;;;;;;;;;;4961585;28;20000;-45
2024/01/03 20:10:57;;;;;;;;;;;;;;;;;;4969130;28;19910;-46
2024/01/03 20:13:24;;;;;;;;;;;;;;;;;;4970087;28;20357;-43
2024/01/03 20:15:50;;;;;;;;;;;;;;;;;;4968896;28;19968;-43
2024/01/03 20:18:15;;;;;;;;;;;;;;;;;;4968036;28;19914;-45
2024/01/03 20:20:43;;;;;;;;;;;;;;;;;;4950932;28;19910;-43
2024/01/03 20:23:11;;;;;;;;;;;;;;;;;;4982077;28;20008;-43
2024/01/03 20:25:37;;;;;;;;;;;;;;;;;;4968300;28;19964;-45
2024/01/03 20:28:03;;;;;;;;;;;;;;;;;;4958481;28;19917;-45
2024/01/03 20:30:28;;;;;;;;;;;;;;;;;;4967563;28;20294;-43
2024/01/03 20:32:54;;;;;;;;;;;;;;;;;;4956214;28;20345;-44
2024/01/03 20:35:20;;;;;;;;;;;;;;;;;;4951145;28;20306;-43
2024/01/03 20:37:46;;;;;;;;;;;;;;;;;;4964279;28;20368;-44
2024/01/03 20:40:12;;;;;;;;;;;;;;;;;;4967944;28;19910;-45
2024/01/03 20:42:39;;;;;;;;;;;;;;;;;;4966052;28;20424;-45
2024/01/03 20:45:06;;;;;;;;;;;;;;;;;;4960802;28;19933;-43
2024/01/03 20:47:32;;;;;;;;;;;;;;;;;;4966493;28;19921;-44
2024/01/03 20:49:57;;;;;;;;;;;;;;;;;;4966870;28;19914;-43
2024/01/03 20:52:23;;;;;;;;;;;;;;;;;;4966573;28;19957;-44
2024/01/03 20:54:51;;;;;;;;;;;;;;;;;;4965707;28;19922;-44
2024/01/03 20:57:17;;;;;;;;;;;;;;;;;;4968033;28;19914;-44
2024/01/03 20:59:43;;;;;;;;;;;;;;;;;;4962320;28;19914;-43
2024/01/03 21:02:09;;;;;;;;;;;;;;;;;;4959761;28;19921;-44
2024/01/03 21:04:35;;;;;;;;;;;;;;;;;;4965397;28;19927;-43
2024/01/03 21:07:01;;;;;;;;;;;;;;;;;;4966140;28;19914;-44
2024/01/03 21:09:26;;;;;;;;;;;;;;;;;;4967577;28;20000;-44
2024/01/03 21:11:52;;;;;;;;;;;;;;;;;;4965575;28;19910;-43
2024/01/03 21:14:18;;;;;;;;;;;;;;;;;;4965747;28;20396;-45
2024/01/03 21:16:44;;;;;;;;;;;;;;;;;;4965316;28;19918;-44
2024/01/03 21:19:10;;;;;;;;;;;;;;;;;;4964540;28;19914;-42
2024/01/03 21:21:36;;;;;;;;;;;;;;;;;;4966257;28;19950;-46
2024/01/03 21:24:02;;;;;;;;;;;;;;;;;;4966065;28;19914;-43
2024/01/03 21:26:29;;;;;;;;;;;;;;;;;;4967475;28;19921;-43
2024/01/03 21:28:54;;;;;;;;;;;;;;;;;;4969005;28;20001;-44
2024/01/03 21:31:21;;;;;;;;;;;;;;;;;;4968897;28;20001;-43
2024/01/03 21:33:46;;;;;;;;;;;;;;;;;;4971917;28;19914;-44
2024/01/03 21:36:12;;;;;;;;;;;;;;;;;;4963117;28;20009;-43
2024/01/03 21:38:39;;;;;;;;;;;;;;;;;;4965922;28;19970;-43
2024/01/03 21:41:05;;;;;;;;;;;;;;;;;;4968385;28;19991;-44
2024/01/03 21:43:31;;;;;;;;;;;;;;;;;;4970517;28;19949;-43
2024/01/03 21:45:57;;;;;;;;;;;;;;;;;;4968025;28;20088;-44
2024/01/03 21:48:22;;;;;;;;;;;;;;;;;;4971284;28;20289;-45
2024/01/03 21:50:48;;;;;;;;;;;;;;;;;;4967670;28;19914;-43
2024/01/03 21:53:14;;;;;;;;;;;;;;;;;;4958513;28;19918;-44
2024/01/03 21:55:40;;;;;;;;;;;;;;;;;;4962793;28;20008;-45
2024/01/03 21:58:06;;;;;;;;;;;;;;;;;;4954291;28;19918;-44
2024/01/03 22:00:32;;;;;;;;;;;;;;;;;;4968668;28;19921;-45
2024/01/03 22:02:58;;;;;;;;;;;;;;;;;;4968480;28;20437;-44
2024/01/03 22:05:24;;;;;;;;;;;;;;;;;;4967226;28;19922;-44
2024/01/03 22:07:50;;;;;;;;;;;;;;;;;;4952897;28;19918;-43
2024/01/03 22:10:17;;;;;;;;;;;;;;;;;;4959772;28;19915;-44
2024/01/03 22:12:49;;;;;;;;;;;;;;;;;;4970003;28;19937;-44
2024/01/03 22:15:16;;;;;;;;;;;;;;;;;;4969315;28;19937;-43
2024/01/03 22:17:42;;;;;;;;;;;;;;;;;;4969789;28;19926;-43
2024/01/03 22:20:07;;;;;;;;;;;;;;;;;;4970485;28;19914;-44
2024/01/03 22:22:33;;;;;;;;;;;;;;;;;;4969593;28;19921;-45
2024/01/03 22:24:59;;;;;;;;;;;;;;;;;;4969459;28;20341;-44
2024/01/03 22:27:25;;;;;;;;;;;;;;;;;;4970861;28;19910;-44
2024/01/03 22:29:51;;;;;;;;;;;;;;;;;;4968315;28;20445;-44
2024/01/03 22:32:17;;;;;;;;;;;;;;;;;;4969737;28;20017;-43
2024/01/03 22:34:43;;;;;;;;;;;;;;;;;;4970542;28;19910;-43
2024/01/03 22:37:09;;;;;;;;;;;;;;;;;;4970185;28;19985;-46